createdAt,value
2018-04-23T00:00:06.275Z,35.40
2018-04-23T00:01:06.152Z,35.90
2018-04-23T00:02:06.158Z,36.20
2018-04-23T00:03:06.179Z,38.60
2018-04-23T00:04:06.172Z,40.70
2018-04-23T00:05:06.294Z,38.10
2018-04-23T00:06:06.233Z,38.70
2018-04-23T00:07:06.224Z,38.70
2018-04-23T00:08:06.246Z,37.80
2018-04-23T00:09:06.275Z,40.00
2018-04-23T00:10:06.367Z,39.40
2018-04-23T00:11:06.303Z,40.50
2018-04-23T00:12:06.295Z,40.60
2018-04-23T00:13:06.322Z,41.10
2018-04-23T00:14:06.325Z,42.00
2018-04-23T00:15:06.446Z,42.50
2018-04-23T00:16:06.374Z,42.60
2018-04-23T00:17:06.391Z,42.50
2018-04-23T00:18:06.400Z,43.70
2018-04-23T00:19:06.422Z,42.00
2018-04-23T00:20:06.516Z,43.90
2018-04-23T00:21:06.430Z,44.20
2018-04-23T00:22:06.452Z,43.30
2018-04-23T00:23:06.526Z,43.90
2018-04-23T00:24:06.488Z,43.60
2018-04-23T00:25:06.492Z,42.90
2018-04-23T00:26:06.627Z,44.40
2018-04-23T00:27:06.529Z,46.70
2018-04-23T00:28:06.540Z,45.20
2018-04-23T00:29:06.566Z,46.20
2018-04-23T00:30:06.581Z,46.10
2018-04-23T00:31:06.596Z,47.80
2018-04-23T00:32:21.783Z,50.00
2018-04-23T00:33:06.627Z,48.70
2018-04-23T00:34:06.646Z,50.10
2018-04-23T00:35:06.661Z,50.10
2018-04-23T00:36:06.668Z,50.90
2018-04-23T00:37:06.783Z,45.30
2018-04-23T00:38:06.693Z,50.00
2018-04-23T00:39:06.726Z,51.10
2018-04-23T00:40:06.747Z,53.10
2018-04-23T00:41:06.757Z,55.00
2018-04-23T00:42:06.875Z,54.80
2018-04-23T00:43:06.765Z,55.60
2018-04-23T00:44:06.780Z,56.10
2018-04-23T00:45:06.813Z,55.90
2018-04-23T00:46:06.820Z,53.40
2018-04-23T00:47:06.921Z,52.60
2018-04-23T00:48:06.834Z,53.10
2018-04-23T00:49:06.871Z,54.70
2018-04-23T00:50:06.890Z,52.50
2018-04-23T00:51:06.895Z,57.20
2018-04-23T00:52:06.906Z,56.80
2018-04-23T00:53:07.025Z,48.70
2018-04-23T00:54:06.937Z,52.10
2018-04-23T00:55:06.940Z,49.70
2018-04-23T00:56:06.974Z,45.70
2018-04-23T00:57:06.981Z,44.70
2018-04-23T00:58:07.684Z,44.60
2018-04-23T00:59:07.009Z,44.90
2018-04-23T01:00:07.021Z,45.70
2018-04-23T01:01:07.027Z,45.40
2018-04-23T01:02:07.059Z,46.20
2018-04-23T01:03:07.168Z,47.90
2018-04-23T01:04:07.082Z,46.60
2018-04-23T01:05:07.111Z,46.30
2018-04-23T01:06:07.123Z,48.40
2018-04-23T01:07:07.143Z,49.80
2018-04-23T01:08:07.232Z,49.30
2018-04-23T01:09:07.159Z,48.60
2018-04-23T01:10:07.161Z,50.50
2018-04-23T01:11:07.189Z,48.50
2018-04-23T01:12:07.205Z,48.40
2018-04-23T01:13:07.308Z,49.20
2018-04-23T01:14:07.236Z,45.90
2018-04-23T01:15:07.234Z,46.50
2018-04-23T01:16:07.274Z,46.40
2018-04-23T01:17:07.279Z,46.60
2018-04-23T01:18:07.527Z,46.80
2018-04-23T01:19:07.313Z,45.80
2018-04-23T01:20:07.326Z,46.30
2018-04-23T01:21:07.338Z,47.40
2018-04-23T01:22:07.338Z,46.60
2018-04-23T01:23:07.362Z,47.70
2018-04-23T01:24:07.534Z,46.00
2018-04-23T01:25:07.405Z,46.20
2018-04-23T01:26:07.528Z,46.40
2018-04-23T01:27:07.421Z,48.10
2018-04-23T01:28:07.454Z,49.50
2018-04-23T01:29:07.544Z,46.70
2018-04-23T01:30:07.486Z,46.20
2018-04-23T01:31:07.473Z,47.90
2018-04-23T01:32:07.497Z,45.70
2018-04-23T01:33:07.518Z,47.90
2018-04-23T01:34:07.525Z,48.00
2018-04-23T01:35:07.626Z,49.70
2018-04-23T01:36:07.553Z,49.90
2018-04-23T01:37:07.576Z,49.60
2018-04-23T01:38:07.569Z,50.50
2018-04-23T01:39:07.605Z,51.40
2018-04-23T01:40:07.725Z,52.00
2018-04-23T01:41:07.636Z,54.40
2018-04-23T01:42:07.654Z,54.20
2018-04-23T01:43:07.655Z,54.00
2018-04-23T01:44:07.663Z,54.00
2018-04-23T01:45:07.776Z,53.90
2018-04-23T01:46:07.713Z,53.00
2018-04-23T01:47:07.713Z,54.50
2018-04-23T01:48:07.717Z,55.00
2018-04-23T01:49:07.748Z,54.90
2018-04-23T01:50:07.845Z,54.40
2018-04-23T01:51:07.765Z,53.00
2018-04-23T01:52:07.786Z,53.70
2018-04-23T01:53:07.820Z,53.10
2018-04-23T01:54:07.805Z,52.20
2018-04-23T01:55:07.924Z,51.70
2018-04-23T01:56:07.834Z,49.60
2018-04-23T01:57:07.846Z,50.70
2018-04-23T01:58:07.886Z,49.30
2018-04-23T01:59:07.895Z,48.90
2018-04-23T02:00:07.992Z,48.30
2018-04-23T02:01:07.904Z,47.00
2018-04-23T02:02:07.917Z,45.90
2018-04-23T02:03:07.932Z,45.50
2018-04-23T02:04:07.958Z,47.60
2018-04-23T02:05:08.068Z,45.90
2018-04-23T02:06:07.985Z,45.80
2018-04-23T02:07:08.012Z,47.60
2018-04-23T02:08:08.013Z,47.40
2018-04-23T02:09:08.019Z,47.50
2018-04-23T02:10:08.159Z,48.60
2018-04-23T02:11:08.071Z,47.10
2018-04-23T02:12:08.068Z,47.70
2018-04-23T02:13:08.099Z,45.90
2018-04-23T02:14:08.105Z,45.00
2018-04-23T02:15:08.207Z,44.00
2018-04-23T02:16:08.179Z,43.60
2018-04-23T02:17:08.148Z,42.80
2018-04-23T02:18:08.169Z,43.50
2018-04-23T02:19:08.175Z,44.60
2018-04-23T02:20:08.302Z,43.30
2018-04-23T02:21:08.193Z,44.10
2018-04-23T02:22:08.216Z,45.10
2018-04-23T02:23:08.248Z,44.60
2018-04-23T02:24:08.261Z,43.90
2018-04-23T02:25:08.757Z,44.80
2018-04-23T02:26:08.275Z,47.10
2018-04-23T02:27:08.300Z,46.20
2018-04-23T02:28:08.309Z,45.00
2018-04-23T02:29:08.308Z,42.10
2018-04-23T02:30:08.434Z,44.20
2018-04-23T02:31:08.357Z,43.60
2018-04-23T02:32:08.352Z,41.60
2018-04-23T02:33:08.372Z,43.90
2018-04-23T02:34:08.400Z,43.70
2018-04-23T02:35:08.508Z,44.00
2018-04-23T02:36:08.427Z,44.00
2018-04-23T02:37:08.448Z,42.90
2018-04-23T02:38:08.458Z,45.40
2018-04-23T02:39:08.477Z,46.80
2018-04-23T02:40:08.564Z,47.10
2018-04-23T02:41:08.507Z,46.00
2018-04-23T02:42:08.499Z,45.90
2018-04-23T02:43:08.538Z,48.30
2018-04-23T02:44:08.545Z,46.70
2018-04-23T02:45:08.650Z,49.30
2018-04-23T02:46:08.550Z,49.60
2018-04-23T02:47:08.580Z,50.70
2018-04-23T02:48:08.585Z,50.00
2018-04-23T02:49:08.617Z,50.90
2018-04-23T02:50:08.720Z,50.70
2018-04-23T02:51:08.638Z,52.10
2018-04-23T02:52:08.651Z,50.90
2018-04-23T02:53:08.684Z,52.50
2018-04-23T02:54:08.798Z,52.00
2018-04-23T02:55:08.697Z,51.70
2018-04-23T02:56:08.815Z,52.10
2018-04-23T02:57:08.728Z,51.70
2018-04-23T02:58:08.735Z,53.60
2018-04-23T02:59:08.737Z,52.80
2018-04-23T03:00:08.776Z,53.60
2018-04-23T03:01:08.876Z,53.10
2018-04-23T03:02:08.800Z,53.20
2018-04-23T03:03:08.797Z,52.20
2018-04-23T03:04:08.826Z,53.10
2018-04-23T03:05:08.846Z,53.90
2018-04-23T03:06:08.856Z,56.20
2018-04-23T03:07:08.948Z,57.40
2018-04-23T03:08:08.885Z,56.90
2018-04-23T03:09:08.898Z,59.70
2018-04-23T03:10:08.900Z,60.00
2018-04-23T03:11:08.911Z,60.20
2018-04-23T03:12:09.043Z,63.10
2018-04-23T03:13:08.954Z,62.10
2018-04-23T03:14:08.969Z,65.90
2018-04-23T03:15:08.967Z,64.20
2018-04-23T03:16:08.977Z,66.40
2018-04-23T03:17:09.090Z,67.90
2018-04-23T03:18:09.010Z,66.60
2018-04-23T03:19:09.040Z,68.20
2018-04-23T03:20:09.062Z,68.90
2018-04-23T03:21:09.046Z,69.30
2018-04-23T03:22:09.186Z,70.00
2018-04-23T03:23:09.090Z,70.90
2018-04-23T03:24:09.091Z,69.60
2018-04-23T03:25:09.240Z,69.40
2018-04-23T03:26:09.131Z,64.90
2018-04-23T03:27:09.234Z,70.10
2018-04-23T03:28:09.153Z,68.10
2018-04-23T03:29:09.165Z,66.80
2018-04-23T03:30:09.189Z,68.90
2018-04-23T03:31:09.212Z,66.40
2018-04-23T03:32:09.309Z,66.00
2018-04-23T03:33:09.230Z,66.50
2018-04-23T03:34:09.243Z,66.00
2018-04-23T03:35:09.252Z,66.50
2018-04-23T03:36:09.259Z,67.00
2018-04-23T03:37:09.403Z,66.40
2018-04-23T03:38:09.297Z,67.60
2018-04-23T03:39:09.306Z,67.00
2018-04-23T03:40:09.338Z,66.10
2018-04-23T03:41:09.343Z,65.40
2018-04-23T03:42:09.465Z,62.60
2018-04-23T03:43:09.370Z,64.40
2018-04-23T03:44:09.372Z,66.20
2018-04-23T03:45:09.387Z,62.80
2018-04-23T03:46:09.410Z,64.80
2018-04-23T03:47:09.737Z,66.80
2018-04-23T03:48:09.444Z,67.30
2018-04-23T03:49:09.463Z,66.90
2018-04-23T03:50:09.464Z,67.60
2018-04-23T03:51:09.473Z,66.30
2018-04-23T03:52:09.587Z,65.80
2018-04-23T03:53:09.516Z,68.60
2018-04-23T03:54:09.533Z,64.40
2018-04-23T03:55:09.548Z,70.30
2018-04-23T03:56:09.553Z,66.70
2018-04-23T03:57:09.576Z,65.20
2018-04-23T03:58:09.684Z,69.10
2018-04-23T03:59:09.603Z,65.30
2018-04-23T04:00:09.622Z,66.40
2018-04-23T04:01:09.624Z,67.10
2018-04-23T04:02:09.646Z,65.10
2018-04-23T04:03:09.753Z,64.20
2018-04-23T04:04:09.658Z,64.00
2018-04-23T04:05:09.666Z,66.70
2018-04-23T04:06:09.681Z,65.30
2018-04-23T04:07:09.722Z,62.50
2018-04-23T04:08:09.809Z,64.30
2018-04-23T04:09:09.729Z,65.10
2018-04-23T04:10:09.738Z,65.60
2018-04-23T04:11:09.765Z,66.90
2018-04-23T04:12:09.781Z,65.60
2018-04-23T04:13:09.881Z,68.50
2018-04-23T04:14:09.797Z,67.70
2018-04-23T04:15:09.808Z,71.50
2018-04-23T04:16:09.821Z,70.60
2018-04-23T04:17:09.839Z,71.20
2018-04-23T04:18:09.962Z,72.70
2018-04-23T04:19:09.864Z,73.80
2018-04-23T04:20:09.904Z,72.10
2018-04-23T04:21:09.916Z,74.30
2018-04-23T04:22:09.934Z,75.80
2018-04-23T04:23:10.089Z,70.50
2018-04-23T04:24:09.948Z,73.00
2018-04-23T04:25:09.952Z,70.80
2018-04-23T04:26:09.979Z,72.70
2018-04-23T04:27:09.986Z,72.50
2018-04-23T04:28:10.110Z,72.40
2018-04-23T04:29:10.019Z,73.90
2018-04-23T04:30:10.016Z,70.90
2018-04-23T04:31:10.038Z,70.60
2018-04-23T04:32:10.067Z,72.20
2018-04-23T04:33:10.187Z,74.60
2018-04-23T04:34:10.102Z,71.70
2018-04-23T04:35:10.109Z,70.20
2018-04-23T04:36:10.123Z,72.60
2018-04-23T04:37:10.131Z,72.00
2018-04-23T04:38:10.281Z,72.10
2018-04-23T04:39:10.142Z,75.00
2018-04-23T04:40:10.169Z,76.30
2018-04-23T04:41:10.199Z,77.30
2018-04-23T04:42:10.194Z,77.60
2018-04-23T04:43:10.320Z,74.10
2018-04-23T04:44:10.239Z,75.00
2018-04-23T04:45:10.226Z,76.40
2018-04-23T04:46:10.267Z,77.20
2018-04-23T04:47:10.260Z,78.00
2018-04-23T04:48:10.393Z,84.30
2018-04-23T04:49:10.309Z,80.70
2018-04-23T04:50:10.296Z,83.60
2018-04-23T04:51:10.334Z,83.50
2018-04-23T04:52:10.331Z,83.30
2018-04-23T04:53:10.510Z,83.30
2018-04-23T04:54:10.365Z,84.80
2018-04-23T04:55:10.385Z,90.10
2018-04-23T04:56:10.381Z,89.80
2018-04-23T04:57:10.408Z,91.90
2018-04-23T04:58:10.561Z,88.40
2018-04-23T04:59:10.423Z,88.70
2018-04-23T05:00:10.463Z,88.30
2018-04-23T05:01:10.461Z,87.40
2018-04-23T05:02:10.465Z,89.40
2018-04-23T05:03:10.576Z,91.90
2018-04-23T05:04:10.505Z,96.50
2018-04-23T05:05:10.519Z,91.30
2018-04-23T05:06:10.520Z,91.30
2018-04-23T05:07:10.540Z,90.30
2018-04-23T05:08:10.558Z,90.70
2018-04-23T05:09:10.710Z,89.80
2018-04-23T05:10:10.578Z,85.60
2018-04-23T05:11:10.605Z,84.20
2018-04-23T05:12:10.601Z,81.70
2018-04-23T05:13:10.620Z,79.60
2018-04-23T05:14:10.727Z,82.80
2018-04-23T05:15:10.655Z,81.40
2018-04-23T05:16:10.668Z,77.50
2018-04-23T05:17:10.670Z,83.60
2018-04-23T05:18:10.698Z,85.50
2018-04-23T05:19:10.712Z,80.60
2018-04-23T05:20:10.820Z,83.10
2018-04-23T05:21:10.745Z,80.10
2018-04-23T05:22:10.751Z,83.30
2018-04-23T05:23:10.753Z,82.40
2018-04-23T05:24:10.791Z,83.40
2018-04-23T05:25:14.449Z,78.00
2018-04-23T05:26:10.793Z,79.20
2018-04-23T05:27:10.826Z,77.30
2018-04-23T05:28:10.828Z,81.00
2018-04-23T05:29:10.837Z,81.90
2018-04-23T05:30:10.967Z,83.10
2018-04-23T05:31:10.863Z,78.20
2018-04-23T05:32:10.897Z,76.60
2018-04-23T05:33:10.910Z,74.60
2018-04-23T05:34:10.925Z,74.00
2018-04-23T05:35:11.032Z,75.00
2018-04-23T05:36:10.957Z,79.00
2018-04-23T05:37:10.967Z,75.90
2018-04-23T05:38:10.961Z,74.60
2018-04-23T05:39:11.000Z,75.50
2018-04-23T05:40:11.102Z,79.10
2018-04-23T05:41:11.021Z,77.40
2018-04-23T05:42:11.026Z,74.90
2018-04-23T05:43:11.065Z,73.70
2018-04-23T05:44:11.089Z,72.70
2018-04-23T05:45:11.156Z,67.60
2018-04-23T05:46:11.090Z,68.90
2018-04-23T05:47:11.095Z,69.40
2018-04-23T05:48:11.096Z,70.20
2018-04-23T05:49:11.109Z,71.30
2018-04-23T05:50:11.287Z,71.50
2018-04-23T05:51:11.143Z,75.50
2018-04-23T05:52:11.152Z,77.20
2018-04-23T05:53:11.191Z,76.00
2018-04-23T05:54:11.183Z,76.30
2018-04-23T05:55:11.318Z,73.10
2018-04-23T05:56:11.207Z,80.60
2018-04-23T05:57:11.238Z,78.20
2018-04-23T05:58:11.235Z,81.20
2018-04-23T05:59:11.253Z,71.00
2018-04-23T06:00:11.417Z,71.90
2018-04-23T06:01:11.278Z,71.70
2018-04-23T06:02:11.287Z,66.10
2018-04-23T06:03:11.323Z,67.20
2018-04-23T06:04:11.316Z,64.30
2018-04-23T06:05:11.543Z,61.10
2018-04-23T06:06:11.368Z,62.20
2018-04-23T06:07:11.362Z,62.00
2018-04-23T06:08:11.379Z,59.80
2018-04-23T06:09:11.405Z,58.40
2018-04-23T06:10:11.413Z,60.00
2018-04-23T06:11:11.588Z,58.70
2018-04-23T06:12:11.452Z,57.50
2018-04-23T06:13:11.447Z,56.10
2018-04-23T06:14:11.453Z,56.30
2018-04-23T06:15:11.473Z,56.80
2018-04-23T06:16:11.585Z,56.60
2018-04-23T06:17:11.521Z,52.80
2018-04-23T06:18:11.508Z,53.00
2018-04-23T06:19:11.529Z,50.70
2018-04-23T06:20:11.559Z,51.10
2018-04-23T06:21:11.703Z,52.50
2018-04-23T06:22:11.585Z,50.90
2018-04-23T06:23:11.591Z,51.10
2018-04-23T06:24:11.596Z,47.70
2018-04-23T06:25:11.620Z,48.40
2018-04-23T06:26:11.723Z,47.30
2018-04-23T06:27:11.648Z,47.20
2018-04-23T06:28:11.678Z,46.70
2018-04-23T06:29:11.695Z,46.40
2018-04-23T06:30:11.681Z,46.50
2018-04-23T06:31:11.717Z,47.90
2018-04-23T06:32:11.820Z,45.90
2018-04-23T06:33:11.737Z,46.50
2018-04-23T06:34:11.757Z,45.70
2018-04-23T06:35:11.765Z,45.80
2018-04-23T06:36:11.778Z,46.70
2018-04-23T06:37:11.898Z,44.30
2018-04-23T06:38:11.804Z,45.80
2018-04-23T06:39:11.825Z,45.20
2018-04-23T06:40:11.841Z,44.70
2018-04-23T06:41:11.834Z,44.10
2018-04-23T06:42:11.866Z,44.20
2018-04-23T06:43:12.024Z,45.20
2018-04-23T06:44:11.891Z,46.40
2018-04-23T06:45:11.915Z,45.50
2018-04-23T06:46:11.976Z,45.60
2018-04-23T06:47:11.929Z,47.10
2018-04-23T06:48:12.081Z,45.90
2018-04-23T06:49:11.957Z,48.20
2018-04-23T06:50:11.984Z,46.80
2018-04-23T06:51:11.971Z,47.50
2018-04-23T06:52:11.997Z,48.10
2018-04-23T06:53:12.120Z,48.70
2018-04-23T06:54:12.025Z,45.90
2018-04-23T06:55:12.048Z,48.70
2018-04-23T06:56:12.054Z,46.80
2018-04-23T06:57:12.077Z,48.20
2018-04-23T06:58:12.184Z,45.50
2018-04-23T06:59:12.105Z,47.20
2018-04-23T07:00:12.109Z,45.90
2018-04-23T07:01:12.123Z,48.40
2018-04-23T07:02:12.152Z,46.50
2018-04-23T07:03:12.311Z,45.10
2018-04-23T07:04:12.182Z,47.00
2018-04-23T07:05:12.216Z,47.80
2018-04-23T07:06:12.180Z,48.40
2018-04-23T07:07:12.205Z,47.60
2018-04-23T07:08:12.386Z,47.80
2018-04-23T07:09:12.237Z,47.40
2018-04-23T07:10:12.262Z,48.30
2018-04-23T07:11:12.249Z,47.00
2018-04-23T07:12:12.282Z,48.20
2018-04-23T07:13:12.506Z,47.40
2018-04-23T07:14:12.312Z,46.60
2018-04-23T07:15:12.346Z,46.80
2018-04-23T07:16:12.324Z,45.30
2018-04-23T07:17:12.345Z,45.80
2018-04-23T07:18:12.517Z,46.40
2018-04-23T07:19:12.362Z,45.90
2018-04-23T07:20:12.386Z,48.60
2018-04-23T07:21:12.408Z,48.60
2018-04-23T07:22:12.414Z,47.10
2018-04-23T07:23:12.437Z,49.00
2018-04-23T07:24:12.555Z,46.50
2018-04-23T07:25:12.461Z,47.90
2018-04-23T07:26:12.456Z,47.60
2018-04-23T07:27:12.477Z,47.90
2018-04-23T07:28:12.487Z,46.60
2018-04-23T07:29:12.612Z,46.30
2018-04-23T07:30:12.535Z,46.70
2018-04-23T07:31:12.534Z,47.70
2018-04-23T07:32:12.570Z,47.10
2018-04-23T07:33:12.574Z,45.50
2018-04-23T07:34:12.699Z,45.40
2018-04-23T07:35:12.606Z,47.00
2018-04-23T07:36:12.598Z,46.40
2018-04-23T07:37:12.641Z,45.00
2018-04-23T07:38:12.646Z,45.50
2018-04-23T07:39:12.641Z,46.60
2018-04-23T07:40:12.818Z,47.40
2018-04-23T07:41:12.670Z,47.90
2018-04-23T07:42:12.697Z,46.70
2018-04-23T07:43:12.719Z,47.30
2018-04-23T07:44:12.727Z,44.20
2018-04-23T07:45:12.896Z,46.60
2018-04-23T07:46:12.739Z,46.30
2018-04-23T07:47:12.754Z,47.60
2018-04-23T07:48:12.767Z,48.60
2018-04-23T07:49:12.804Z,47.60
2018-04-23T07:50:12.946Z,47.90
2018-04-23T07:51:12.816Z,47.60
2018-04-23T07:52:12.831Z,48.80
2018-04-23T07:53:12.844Z,46.60
2018-04-23T07:54:12.903Z,48.00
2018-04-23T07:55:12.866Z,46.00
2018-04-23T07:56:13.005Z,48.60
2018-04-23T07:57:12.911Z,48.50
2018-04-23T07:58:12.929Z,48.80
2018-04-23T07:59:12.930Z,48.60
2018-04-23T08:00:12.938Z,50.40
2018-04-23T08:01:13.115Z,49.00
2018-04-23T08:02:12.986Z,48.60
2018-04-23T08:03:12.990Z,48.80
2018-04-23T08:04:13.015Z,49.90
2018-04-23T08:05:13.031Z,49.90
2018-04-23T08:06:13.146Z,47.80
2018-04-23T08:07:13.060Z,48.60
2018-04-23T08:08:13.059Z,48.80
2018-04-23T08:09:13.063Z,48.70
2018-04-23T08:10:13.101Z,47.90
2018-04-23T08:11:13.239Z,47.70
2018-04-23T08:12:13.147Z,49.60
2018-04-23T08:13:13.123Z,51.80
2018-04-23T08:14:13.144Z,49.00
2018-04-23T08:15:13.166Z,50.10
2018-04-23T08:16:13.284Z,49.40
2018-04-23T08:17:13.195Z,52.20
2018-04-23T08:18:13.209Z,53.80
2018-04-23T08:19:13.206Z,56.30
2018-04-23T08:20:13.228Z,53.00
2018-04-23T08:21:13.329Z,53.80
2018-04-23T08:22:13.254Z,56.90
2018-04-23T08:23:13.276Z,57.00
2018-04-23T08:24:13.294Z,57.20
2018-04-23T08:25:13.284Z,58.90
2018-04-23T08:26:13.397Z,60.40
2018-04-23T08:27:13.325Z,59.70
2018-04-23T08:28:13.346Z,53.10
2018-04-23T08:29:13.338Z,52.70
2018-04-23T08:30:13.373Z,56.00
2018-04-23T08:31:13.493Z,56.10
2018-04-23T08:32:13.384Z,57.60
2018-04-23T08:33:13.405Z,57.30
2018-04-23T08:34:13.418Z,52.80
2018-04-23T08:35:13.419Z,49.40
2018-04-23T08:36:13.453Z,45.40
2018-04-23T08:37:13.583Z,45.90
2018-04-23T08:38:13.475Z,45.30
2018-04-23T08:39:13.488Z,45.30
2018-04-23T08:40:13.500Z,51.60
2018-04-23T08:41:13.523Z,53.90
2018-04-23T08:42:13.629Z,53.90
2018-04-23T08:43:13.531Z,51.50
2018-04-23T08:44:13.569Z,50.00
2018-04-23T08:45:13.585Z,49.40
2018-04-23T08:46:13.611Z,54.50
2018-04-23T08:47:13.606Z,54.50
2018-04-23T08:48:13.704Z,52.80
2018-04-23T08:49:13.746Z,55.00
2018-04-23T08:50:13.652Z,58.00
2018-04-23T08:51:13.646Z,57.70
2018-04-23T08:52:13.676Z,52.90
2018-04-23T08:53:13.782Z,51.50
2018-04-23T08:54:13.680Z,49.20
2018-04-23T08:55:13.700Z,47.80
2018-04-23T08:56:13.729Z,46.80
2018-04-23T08:57:13.725Z,50.40
2018-04-23T08:58:13.847Z,51.10
2018-04-23T08:59:13.749Z,49.90
2018-04-23T09:00:13.787Z,48.40
2018-04-23T09:01:13.780Z,46.50
2018-04-23T09:02:13.923Z,45.70
2018-04-23T09:03:13.913Z,44.80
2018-04-23T09:04:13.844Z,44.90
2018-04-23T09:05:13.835Z,42.90
2018-04-23T09:06:13.842Z,43.40
2018-04-23T09:07:13.872Z,44.10
2018-04-23T09:08:13.984Z,41.80
2018-04-23T09:09:13.904Z,42.30
2018-04-23T09:10:13.911Z,41.50
2018-04-23T09:11:13.914Z,41.50
2018-04-23T09:12:13.943Z,41.10
2018-04-23T09:13:14.044Z,41.70
2018-04-23T09:14:13.972Z,41.50
2018-04-23T09:15:13.978Z,40.60
2018-04-23T09:16:14.005Z,40.60
2018-04-23T09:17:13.992Z,41.60
2018-04-23T09:18:14.122Z,40.20
2018-04-23T09:19:14.022Z,40.70
2018-04-23T09:20:14.033Z,41.00
2018-04-23T09:21:14.047Z,40.20
2018-04-23T09:22:14.080Z,41.00
2018-04-23T09:23:14.187Z,40.50
2018-04-23T09:24:14.108Z,39.50
2018-04-23T09:25:14.114Z,39.40
2018-04-23T09:26:14.137Z,40.30
2018-04-23T09:27:14.147Z,40.60
2018-04-23T09:28:14.266Z,41.10
2018-04-23T09:29:14.165Z,39.50
2018-04-23T09:30:14.192Z,39.70
2018-04-23T09:31:14.192Z,39.00
2018-04-23T09:32:14.207Z,40.20
2018-04-23T09:33:14.333Z,38.40
2018-04-23T09:34:14.233Z,39.70
2018-04-23T09:35:14.236Z,39.10
2018-04-23T09:36:14.255Z,39.20
2018-04-23T09:37:14.282Z,39.60
2018-04-23T09:38:14.391Z,40.00
2018-04-23T09:39:14.311Z,39.40
2018-04-23T09:40:14.309Z,39.60
2018-04-23T09:41:14.318Z,39.50
2018-04-23T09:42:14.334Z,39.20
2018-04-23T09:43:14.443Z,39.70
2018-04-23T09:44:14.358Z,38.90
2018-04-23T09:45:14.508Z,38.10
2018-04-23T09:46:14.394Z,37.70
2018-04-23T09:47:14.400Z,37.80
2018-04-23T09:48:14.537Z,36.30
2018-04-23T09:49:14.430Z,36.60
2018-04-23T09:50:14.444Z,36.60
2018-04-23T09:51:14.471Z,36.60
2018-04-23T09:52:14.492Z,34.90
2018-04-23T09:53:14.587Z,33.80
2018-04-23T09:54:14.502Z,34.20
2018-04-23T09:55:14.527Z,33.40
2018-04-23T09:56:14.559Z,32.80
2018-04-23T09:57:14.567Z,34.30
2018-04-23T09:58:14.684Z,33.60
2018-04-23T09:59:14.580Z,33.90
2018-04-23T10:00:14.611Z,33.80
2018-04-23T10:01:14.628Z,34.50
2018-04-23T10:02:14.615Z,35.80
2018-04-23T10:03:14.757Z,34.70
2018-04-23T10:04:14.648Z,35.10
2018-04-23T10:05:14.681Z,35.90
2018-04-23T10:06:14.681Z,35.10
2018-04-23T10:07:14.711Z,35.20
2018-04-23T10:08:14.810Z,35.50
2018-04-23T10:09:14.719Z,35.80
2018-04-23T10:10:14.747Z,34.60
2018-04-23T10:11:14.751Z,33.90
2018-04-23T10:12:14.815Z,36.50
2018-04-23T10:13:14.891Z,36.50
2018-04-23T10:14:14.795Z,37.00
2018-04-23T10:15:14.823Z,36.40
2018-04-23T10:16:14.826Z,35.50
2018-04-23T10:17:14.841Z,36.70
2018-04-23T10:18:14.977Z,36.80
2018-04-23T10:19:14.895Z,36.60
2018-04-23T10:20:14.901Z,35.30
2018-04-23T10:21:14.916Z,35.90
2018-04-23T10:22:14.917Z,31.80
2018-04-23T10:23:15.044Z,32.70
2018-04-23T10:24:14.958Z,32.40
2018-04-23T10:25:14.964Z,31.60
2018-04-23T10:26:14.992Z,33.50
2018-04-23T10:27:15.014Z,32.40
2018-04-23T10:28:15.134Z,31.20
2018-04-23T10:29:15.025Z,31.60
2018-04-23T10:30:15.052Z,32.70
2018-04-23T10:31:15.080Z,32.60
2018-04-23T10:32:15.104Z,32.90
2018-04-23T10:33:15.217Z,32.00
2018-04-23T10:34:15.123Z,32.40
2018-04-23T10:35:15.155Z,30.70
2018-04-23T10:36:15.143Z,31.00
2018-04-23T10:37:15.159Z,31.00
2018-04-23T10:38:15.292Z,31.10
2018-04-23T10:39:15.202Z,28.70
2018-04-23T10:40:15.206Z,27.50
2018-04-23T10:41:15.236Z,28.20
2018-04-23T10:42:15.263Z,27.10
2018-04-23T10:43:15.370Z,28.90
2018-04-23T10:44:15.293Z,28.90
2018-04-23T10:45:15.293Z,27.70
2018-04-23T10:46:15.325Z,28.90
2018-04-23T10:47:15.332Z,27.10
2018-04-23T10:48:15.575Z,28.60
2018-04-23T10:49:15.493Z,28.60
2018-04-23T10:50:15.402Z,27.70
2018-04-23T10:51:15.412Z,28.80
2018-04-23T10:52:15.425Z,25.60
2018-04-23T10:53:15.551Z,26.30
2018-04-23T10:54:15.473Z,27.10
2018-04-23T10:55:15.487Z,25.90
2018-04-23T10:56:15.506Z,25.50
2018-04-23T10:57:15.517Z,25.90
2018-04-23T10:58:15.651Z,26.10
2018-04-23T10:59:15.554Z,25.70
2018-04-23T11:00:15.578Z,25.60
2018-04-23T11:01:15.596Z,25.80
2018-04-23T11:02:15.609Z,25.90
2018-04-23T11:03:15.741Z,25.50
2018-04-23T11:04:15.638Z,27.00
2018-04-23T11:05:15.680Z,26.20
2018-04-23T11:06:15.683Z,26.40
2018-04-23T11:07:15.698Z,25.40
2018-04-23T11:08:15.813Z,25.30
2018-04-23T11:09:15.735Z,25.40
2018-04-23T11:10:15.763Z,24.60
2018-04-23T11:11:15.817Z,24.90
2018-04-23T11:12:15.790Z,24.90
2018-04-23T11:13:15.931Z,25.20
2018-04-23T11:14:15.844Z,25.00
2018-04-23T11:15:15.863Z,26.80
2018-04-23T11:16:15.871Z,27.40
2018-04-23T11:17:15.906Z,27.00
2018-04-23T11:18:16.006Z,29.90
2018-04-23T11:19:15.941Z,27.30
2018-04-23T11:20:15.951Z,27.90
2018-04-23T11:21:15.978Z,30.90
2018-04-23T11:23:16.103Z,31.10
2018-04-23T11:24:16.040Z,31.80
2018-04-23T11:25:16.058Z,31.30
2018-04-23T11:26:16.062Z,30.90
2018-04-23T11:27:16.096Z,31.00
2018-04-23T11:28:16.211Z,31.10
2018-04-23T11:29:16.119Z,30.40
2018-04-23T11:30:16.160Z,31.80
2018-04-23T11:31:16.159Z,28.60
2018-04-23T11:32:16.196Z,30.70
2018-04-23T11:33:16.309Z,30.70
2018-04-23T11:34:16.227Z,30.20
2018-04-23T11:35:16.244Z,29.20
2018-04-23T11:36:16.249Z,29.00
2018-04-23T11:37:16.269Z,30.20
2018-04-23T11:38:16.403Z,30.50
2018-04-23T11:39:16.327Z,29.80
2018-04-23T11:40:16.349Z,28.80
2018-04-23T11:41:16.364Z,29.20
2018-04-23T11:42:16.394Z,27.90
2018-04-23T11:43:16.513Z,29.00
2018-04-23T11:44:16.410Z,28.30
2018-04-23T11:45:16.417Z,28.30
2018-04-23T11:46:16.434Z,28.90
2018-04-23T11:47:16.472Z,29.50
2018-04-23T11:48:16.575Z,29.60
2018-04-23T11:49:16.513Z,28.90
2018-04-23T11:50:16.524Z,29.30
2018-04-23T11:51:16.532Z,28.60
2018-04-23T11:52:16.558Z,28.90
2018-04-23T11:53:16.676Z,27.90
2018-04-23T11:54:16.591Z,27.30
2018-04-23T11:55:16.623Z,27.80
2018-04-23T11:56:16.631Z,27.40
2018-04-23T11:57:16.675Z,27.00
2018-04-23T11:58:16.796Z,30.00
2018-04-23T11:59:16.748Z,29.60
2018-04-23T12:00:16.710Z,29.50
2018-04-23T12:01:16.752Z,30.30
2018-04-23T12:02:16.765Z,32.40
2018-04-23T12:03:16.892Z,30.90
2018-04-23T12:04:16.805Z,31.80
2018-04-23T12:05:16.820Z,30.00
2018-04-23T12:06:16.859Z,31.00
2018-04-23T12:07:16.860Z,31.80
2018-04-23T12:08:17.003Z,27.90
2018-04-23T12:09:16.923Z,30.10
2018-04-23T12:10:16.922Z,27.20
2018-04-23T12:11:16.952Z,27.00
2018-04-23T12:12:16.963Z,29.70
2018-04-23T12:13:17.091Z,28.00
2018-04-23T12:14:17.021Z,25.00
2018-04-23T12:15:17.036Z,23.60
2018-04-23T12:16:17.047Z,23.40
2018-04-23T12:17:17.084Z,24.50
2018-04-23T12:18:17.191Z,25.20
2018-04-23T12:19:17.115Z,25.30
2018-04-23T12:20:17.160Z,24.90
2018-04-23T12:21:17.179Z,27.40
2018-04-23T12:22:17.180Z,27.50
2018-04-23T12:23:17.297Z,28.50
2018-04-23T12:24:17.250Z,27.70
2018-04-23T12:25:17.245Z,31.70
2018-04-23T12:26:17.311Z,28.00
2018-04-23T12:27:17.296Z,27.90
2018-04-23T12:28:17.422Z,30.90
2018-04-23T12:29:17.339Z,29.50
2018-04-23T12:30:17.360Z,28.40
2018-04-23T12:31:17.436Z,27.00
2018-04-23T12:32:17.391Z,27.30
2018-04-23T12:33:17.519Z,28.50
2018-04-23T12:34:17.456Z,28.40
2018-04-23T12:35:17.465Z,29.00
2018-04-23T12:36:17.485Z,29.40
2018-04-23T12:37:17.523Z,28.50
2018-04-23T12:38:17.630Z,28.00
2018-04-23T12:39:17.540Z,26.40
2018-04-23T12:40:17.580Z,27.70
2018-04-23T12:41:17.588Z,26.90
2018-04-23T12:42:17.619Z,27.40
2018-04-23T12:43:17.733Z,27.80
2018-04-23T12:44:17.652Z,27.70
2018-04-23T12:45:17.798Z,27.30
2018-04-23T12:46:17.760Z,26.70
2018-04-23T12:47:17.704Z,28.00
2018-04-23T12:48:17.825Z,29.00
2018-04-23T12:49:17.766Z,28.40
2018-04-23T12:50:17.786Z,28.80
2018-04-23T12:51:17.795Z,29.60
2018-04-23T12:52:17.825Z,32.70
2018-04-23T12:53:17.947Z,30.80